Time;durP1;ratioP1;P1;durP2;ratioP2;P2;SDS_P1;SDS_P2;PMS_P1;PMS_P2;Temp;Humidity;BMP_temperature;BMP_pressure;BME280_temperature;BME280_humidity;BME280_pressure;Samples;Min_cycle;Max_cycle;Signal;HPM_P1;HPM_P2
2023/01/22 00:01:25;;;;;;;35.60;13.82;;;;;;;-2.80;100.00;103195.72;5018155;28;20040;-94
2023/01/22 00:03:53;;;;;;;36.50;13.63;;;;;;;-2.90;100.00;103187.31;5017981;28;20034;-93
2023/01/22 00:06:20;;;;;;;36.67;13.87;;;;;;;-2.90;100.00;103198.81;5018712;28;20057;-94
2023/01/22 00:08:47;;;;;;;36.67;14.10;;;;;;;-2.90;100.00;103203.25;5036121;28;20036;-94
2023/01/22 00:11:14;;;;;;;40.53;14.23;;;;;;;-2.97;100.00;103193.84;5017974;28;20040;-94
2023/01/22 00:13:47;;;;;;;36.50;14.85;;;;;;;-2.98;100.00;103192.09;5017938;28;20021;-93
2023/01/22 00:16:19;;;;;;;40.10;13.98;;;;;;;-2.93;100.00;103201.59;5018291;28;20029;-94
2023/01/22 00:18:46;;;;;;;40.27;15.47;;;;;;;-2.82;100.00;103206.41;5019531;28;20033;-93
2023/01/22 00:21:14;;;;;;;38.78;14.25;;;;;;;-2.72;100.00;103204.22;5001719;28;20029;-93
2023/01/22 00:23:52;;;;;;;41.17;14.27;;;;;;;-2.67;100.00;103194.25;5018001;28;20081;-94
2023/01/22 00:26:28;;;;;;;37.75;14.40;;;;;;;-2.50;100.00;103201.41;5019287;28;20474;-93
2023/01/22 00:29:06;;;;;;;31.95;11.80;;;;;;;-2.51;100.00;103189.94;5035619;28;20091;-93
2023/01/22 00:31:36;;;;;;;37.53;14.90;;;;;;;-2.49;100.00;103192.53;5017779;28;20398;-93
2023/01/22 00:34:01;;;;;;;39.58;16.05;;;;;;;-2.42;100.00;103191.31;5017799;28;20499;-93
2023/01/22 00:36:29;;;;;;;33.97;14.32;;;;;;;-2.41;100.00;103189.50;5017908;28;20033;-94
2023/01/22 00:39:05;;;;;;;40.30;13.70;;;;;;;-2.41;100.00;103178.84;5017844;28;20029;-93
2023/01/22 00:41:31;;;;;;;34.00;14.27;;;;;;;-2.36;100.00;103177.72;5018470;28;20272;-93
2023/01/22 00:44:01;;;;;;;33.72;12.98;;;;;;;-2.37;100.00;103175.97;5017723;28;20038;-94
2023/01/22 00:46:31;;;;;;;35.03;14.40;;;;;;;-2.34;100.00;103185.63;5002038;28;20068;-93
2023/01/22 00:49:01;;;;;;;38.55;15.15;;;;;;;-2.42;100.00;103177.13;5001919;28;20273;-93
2023/01/22 00:51:27;;;;;;;34.88;13.85;;;;;;;-2.45;100.00;103174.63;5034692;28;20056;-93
2023/01/22 00:53:57;;;;;;;34.27;13.83;;;;;;;-2.46;100.00;103195.03;5019076;28;20025;-93
2023/01/22 00:56:28;;;;;;;34.83;14.07;;;;;;;-2.54;100.00;103181.22;5018553;28;20451;-92
2023/01/22 00:58:59;;;;;;;33.17;14.18;;;;;;;-2.54;100.00;103186.53;5001576;28;20037;-93
2023/01/22 01:01:25;;;;;;;36.15;13.98;;;;;;;-2.64;100.00;103170.19;5034635;28;20052;-93
2023/01/22 01:03:52;;;;;;;32.77;13.43;;;;;;;-2.75;100.00;103165.34;5016956;28;20474;-93
2023/01/22 01:06:25;;;;;;;33.90;14.07;;;;;;;-2.79;100.00;103168.22;5001376;28;20037;-93
2023/01/22 01:08:51;;;;;;;33.03;14.18;;;;;;;-2.76;100.00;103178.72;5017894;28;20034;-93
2023/01/22 01:11:20;;;;;;;33.77;14.30;;;;;;;-2.82;100.00;103162.13;5034932;28;20504;-93
2023/01/22 01:13:51;;;;;;;34.88;14.18;;;;;;;-2.76;100.00;103165.41;5017668;28;20466;-94
2023/01/22 01:16:28;;;;;;;32.65;13.68;;;;;;;-2.83;100.00;103149.78;5000358;28;20040;-93
2023/01/22 01:19:05;;;;;;;33.53;13.90;;;;;;;-2.78;100.00;103170.81;5017377;28;20033;-93
2023/01/22 01:21:41;;;;;;;34.72;12.95;;;;;;;-2.90;100.00;103158.94;5017451;28;20075;-92
2023/01/22 01:24:06;;;;;;;33.47;14.02;;;;;;;-2.93;100.00;103160.91;5034948;28;20076;-94
2023/01/22 01:26:34;;;;;;;36.80;14.37;;;;;;;-2.97;100.00;103170.78;5017325;28;20067;-94
2023/01/22 01:29:03;;;;;;;32.47;13.48;;;;;;;-3.05;100.00;103154.34;5034465;28;20071;-94
2023/01/22 01:31:32;;;;;;;30.50;12.25;;;;;;;-3.10;100.00;103169.63;5016382;28;20056;-94
2023/01/22 01:34:03;;;;;;;33.28;12.80;;;;;;;-3.18;100.00;103160.19;5016969;28;20025;-94
2023/01/22 01:36:29;;;;;;;30.57;13.60;;;;;;;-3.27;100.00;103155.31;5017570;28;20112;-94
2023/01/22 01:38:58;;;;;;;29.02;13.27;;;;;;;-3.27;100.00;103155.31;5016825;28;20275;-94
2023/01/22 01:41:26;;;;;;;32.92;13.43;;;;;;;-3.36;100.00;103147.75;5034348;28;20052;-93
2023/01/22 01:44:14;;;;;;;34.08;13.63;;;;;;;-3.39;100.00;103150.56;5034380;28;20030;-93
2023/01/22 01:47:19;;;;;;;33.65;13.77;;;;;;;-3.47;100.00;103134.09;5001128;28;20037;-93
2023/01/22 01:49:52;;;;;;;33.00;13.93;;;;;;;-3.45;100.00;103132.25;4956239;28;20035;-93
2023/01/22 01:52:20;;;;;;;31.48;14.13;;;;;;;-3.48;100.00;103124.38;5017451;28;20280;-93
2023/01/22 01:54:51;;;;;;;33.83;12.98;;;;;;;-3.57;100.00;103112.41;5000205;28;20033;-93
2023/01/22 01:57:33;;;;;;;33.85;14.20;;;;;;;-3.56;100.00;103116.75;5016651;28;20076;-92
2023/01/22 02:00:03;;;;;;;31.52;13.38;;;;;;;-3.52;100.00;103124.53;5017362;28;20042;-92
2023/01/22 02:02:31;;;;;;;33.10;14.10;;;;;;;-3.58;100.00;103126.59;5017379;28;20025;-91
2023/01/22 02:04:56;;;;;;;32.33;13.88;;;;;;;-3.60;100.00;103121.38;5016741;28;20280;-91
2023/01/22 02:07:22;;;;;;;28.17;12.35;;;;;;;-3.63;100.00;103126.81;5033643;28;20055;-91
2023/01/22 02:09:52;;;;;;;31.50;13.60;;;;;;;-3.71;100.00;103105.88;5015955;28;20026;-91
2023/01/22 02:12:21;;;;;;;34.13;13.45;;;;;;;-3.68;100.00;103128.78;5016225;28;20033;-91
2023/01/22 02:14:49;;;;;;;33.53;13.60;;;;;;;-3.75;100.00;103116.69;5015763;28;20037;-91
2023/01/22 02:17:18;;;;;;;36.42;13.10;;;;;;;-3.73;100.00;103125.47;5015957;28;20276;-91
2023/01/22 02:19:51;;;;;;;35.15;14.30;;;;;;;-3.70;100.00;103128.84;5016006;28;20057;-91
2023/01/22 02:22:24;;;;;;;31.05;13.45;;;;;;;-3.78;100.00;103111.53;5016401;28;20087;-91
2023/01/22 02:24:50;;;;;;;38.35;15.43;;;;;;;-3.78;100.00;103109.75;5016176;28;20026;-90
2023/01/22 02:27:21;;;;;;;33.63;13.57;;;;;;;-3.83;100.00;103109.06;5018036;28;20034;-91
2023/01/22 02:29:46;;;;;;;32.30;12.57;;;;;;;-3.77;100.00;103116.75;5020078;28;20083;-90
2023/01/22 02:32:12;;;;;;;31.52;13.30;;;;;;;-3.80;100.00;103108.09;5052167;28;20359;-90
2023/01/22 02:34:40;;;;;;;35.90;13.83;;;;;;;-3.75;100.00;103119.34;5037251;28;20465;-90
2023/01/22 02:37:11;;;;;;;32.53;13.45;;;;;;;-3.84;100.00;103115.31;5019463;28;20116;-90
2023/01/22 02:39:38;;;;;;;38.22;13.88;;;;;;;-3.81;100.00;103119.63;5019573;28;20030;-90
2023/01/22 02:42:07;;;;;;;30.30;12.13;;;;;;;-3.86;100.00;103103.06;5019540;28;20033;-90
2023/01/22 02:44:33;;;;;;;33.03;13.07;;;;;;;-3.82;100.00;103124.06;5019413;28;20029;-90
2023/01/22 02:47:01;;;;;;;32.03;13.70;;;;;;;-3.85;100.00;103124.22;5036748;28;20037;-90
2023/01/22 02:49:30;;;;;;;33.77;12.97;;;;;;;-3.91;100.00;103114.72;5020074;28;20116;-89
2023/01/22 02:51:58;;;;;;;35.03;13.80;;;;;;;-3.95;100.00;103099.00;5019042;28;20272;-90
2023/01/22 02:54:23;;;;;;;33.28;13.77;;;;;;;-3.86;100.00;103114.50;5036930;28;20080;-90
2023/01/22 02:56:49;;;;;;;30.57;11.93;;;;;;;-3.83;100.00;103110.88;5039090;28;20057;-90
2023/01/22 02:59:15;;;;;;;32.97;12.98;;;;;;;-3.88;100.00;103111.94;5024380;28;20479;-89
2023/01/22 03:01:40;;;;;;;30.65;11.88;;;;;;;-3.81;100.00;103114.31;5024087;28;20032;-90
2023/01/22 03:04:09;;;;;;;29.02;13.15;;;;;;;-3.68;100.00;103106.69;5041040;28;20060;-90
2023/01/22 03:06:42;;;;;;;29.83;12.35;;;;;;;-3.47;100.00;103115.50;5022739;28;20033;-90
2023/01/22 03:09:12;;;;;;;29.50;12.90;;;;;;;-3.33;100.00;103097.19;5019018;28;20159;-90
2023/01/22 03:11:44;;;;;;;30.17;12.98;;;;;;;-3.16;100.00;103091.06;5036976;28;20268;-90
2023/01/22 03:22:28;;;;;;;28.37;12.93;;;;;;;-2.62;100.00;103101.00;5036837;28;20120;-91
2023/01/22 03:24:55;;;;;;;25.30;11.70;;;;;;;-2.53;100.00;103093.44;5036515;28;20268;-91
2023/01/22 03:27:23;;;;;;;26.00;11.95;;;;;;;-2.41;100.00;103088.47;5018671;28;20358;-91
2023/01/22 03:29:49;;;;;;;25.85;11.68;;;;;;;-2.34;100.00;103087.22;5018368;28;20057;-91
2023/01/22 03:32:21;;;;;;;26.37;12.00;;;;;;;-2.26;100.00;103087.69;5051563;28;20104;-90
2023/01/22 03:34:47;;;;;;;22.55;11.27;;;;;;;-2.16;100.00;103090.75;5018662;28;20392;-91
2023/01/22 03:37:12;;;;;;;26.30;11.82;;;;;;;-2.15;100.00;103089.84;5018333;28;20021;-91
2023/01/22 03:39:41;;;;;;;22.43;10.93;;;;;;;-2.09;100.00;103086.84;5018032;28;20079;-91
2023/01/22 03:42:09;;;;;;;26.38;12.20;;;;;;;-2.09;100.00;103078.03;5019734;28;20032;-90
2023/01/22 03:44:38;;;;;;;25.65;11.65;;;;;;;-2.08;100.00;103075.28;5019401;28;20374;-90
2023/01/22 03:47:06;;;;;;;25.15;11.82;;;;;;;-2.05;100.00;103068.94;5018868;28;20021;-90
2023/01/22 03:49:37;;;;;;;20.57;10.57;;;;;;;-2.01;100.00;103076.69;5018265;28;20033;-91
2023/01/22 03:52:05;;;;;;;26.58;11.68;;;;;;;-2.04;100.00;103065.34;5018355;28;20033;-90
2023/01/22 03:54:31;;;;;;;24.30;11.32;;;;;;;-2.08;100.00;103059.31;5020329;28;20543;-90
2023/01/22 03:56:58;;;;;;;24.77;11.47;;;;;;;-2.05;100.00;103079.56;5018933;28;20053;-90
2023/01/22 03:59:27;;;;;;;23.58;11.10;;;;;;;-2.15;100.00;103061.41;5019816;28;20022;-90
2023/01/22 04:01:54;;;;;;;23.65;12.18;;;;;;;-2.19;100.00;103072.28;5018346;28;20026;-90
2023/01/22 04:04:22;;;;;;;22.38;11.85;;;;;;;-2.24;100.00;103080.50;5018651;28;20029;-91
2023/01/22 04:06:50;;;;;;;25.42;12.05;;;;;;;-2.36;100.00;103071.34;5018860;28;20068;-91
2023/01/22 04:09:21;;;;;;;24.60;11.57;;;;;;;-2.38;100.00;103085.66;5025539;28;20029;-91
2023/01/22 04:11:49;;;;;;;26.88;11.25;;;;;;;-2.54;100.00;103074.91;5050135;28;20033;-91
2023/01/22 04:14:17;;;;;;;20.30;10.18;;;;;;;-2.57;100.00;103070.63;5056193;28;20116;-91
2023/01/22 04:16:43;;;;;;;25.92;11.00;;;;;;;-2.65;100.00;103072.75;5036407;28;20414;-91
2023/01/22 04:19:09;;;;;;;25.07;10.93;;;;;;;-2.67;100.00;103077.31;5038978;28;20034;-90
2023/01/22 04:21:34;;;;;;;25.42;11.73;;;;;;;-2.65;100.00;103078.94;5039097;28;20089;-91
2023/01/22 04:24:03;;;;;;;23.80;12.27;;;;;;;-2.64;100.00;103069.19;5033161;28;20450;-91
2023/01/22 04:26:31;;;;;;;23.85;11.32;;;;;;;-2.59;100.00;103071.63;5019098;28;20044;-91
2023/01/22 04:28:59;;;;;;;26.20;11.23;;;;;;;-2.53;100.00;103066.00;5019018;28;20044;-91
2023/01/22 04:31:24;;;;;;;28.40;11.57;;;;;;;-2.45;100.00;103070.94;5002753;28;20764;-90
2023/01/22 04:33:55;;;;;;;22.52;11.10;;;;;;;-2.40;100.00;103063.59;5018271;28;20047;-90
2023/01/22 04:36:20;;;;;;;25.80;11.70;;;;;;;-2.26;100.00;103073.53;5018495;28;20151;-90
2023/01/22 04:38:46;;;;;;;23.20;10.95;;;;;;;-2.23;100.00;103062.75;5022895;28;20283;-90
2023/01/22 04:41:11;;;;;;;26.30;11.40;;;;;;;-2.14;100.00;103072.91;5027415;28;20033;-90
2023/01/22 04:43:37;;;;;;;20.83;10.40;;;;;;;-2.08;100.00;103080.59;5040722;28;20079;-90
2023/01/22 04:46:02;;;;;;;23.13;10.82;;;;;;;-2.04;100.00;103070.66;5028133;28;20049;-90
2023/01/22 04:48:28;;;;;;;23.42;11.57;;;;;;;-1.98;100.00;103070.34;5026833;28;20035;-91
2023/01/22 04:50:56;;;;;;;23.07;11.03;;;;;;;-1.99;100.00;103048.19;5033017;28;20060;-90
2023/01/22 04:53:21;;;;;;;21.88;11.15;;;;;;;-1.92;100.00;103055.88;5036944;28;20036;-91
2023/01/22 04:55:50;;;;;;;19.73;9.90;;;;;;;-1.86;100.00;103056.41;5039791;28;20041;-92
2023/01/22 04:58:21;;;;;;;24.45;10.23;;;;;;;-1.85;100.00;103058.13;5057186;28;20442;-91
2023/01/22 05:00:49;;;;;;;22.45;10.93;;;;;;;-1.82;100.00;103041.13;5048408;28;20448;-92
2023/01/22 05:03:17;;;;;;;23.63;9.73;;;;;;;-1.77;100.00;103045.28;5022248;28;20037;-90
2023/01/22 05:05:45;;;;;;;22.50;9.75;;;;;;;-1.75;100.00;103057.66;5018004;28;20124;-90
2023/01/22 05:08:13;;;;;;;20.70;9.93;;;;;;;-1.76;100.00;103056.78;5034417;28;20025;-91
2023/01/22 05:10:39;;;;;;;21.08;10.20;;;;;;;-1.87;100.00;103049.38;5017284;28;20059;-91
2023/01/22 05:13:05;;;;;;;23.27;10.07;;;;;;;-1.83;100.00;103056.25;5017137;28;20084;-91
2023/01/22 05:15:34;;;;;;;21.10;9.75;;;;;;;-1.72;100.00;103061.00;5034594;28;20030;-91
2023/01/22 05:18:02;;;;;;;19.90;9.63;;;;;;;-1.74;100.00;103052.25;5000644;28;20073;-91
2023/01/22 05:20:30;;;;;;;21.80;9.77;;;;;;;-1.70;100.00;103056.44;5016807;28;20042;-91
2023/01/22 05:23:05;;;;;;;20.45;9.65;;;;;;;-1.65;100.00;103054.44;5017029;28;20167;-90
2023/01/22 05:25:30;;;;;;;22.30;9.07;;;;;;;-1.62;100.00;103053.41;5034072;28;20029;-90
2023/01/22 05:28:03;;;;;;;18.40;8.55;;;;;;;-1.61;100.00;103058.66;5034926;28;20036;-91
2023/01/22 05:30:29;;;;;;;19.07;9.47;;;;;;;-1.58;100.00;103068.25;5016797;28;20040;-91
2023/01/22 05:32:56;;;;;;;18.75;9.68;;;;;;;-1.51;100.00;103077.63;5016335;28;20276;-91
2023/01/22 05:35:21;;;;;;;20.83;9.93;;;;;;;-1.54;100.00;103074.28;5034138;28;20045;-91
2023/01/22 05:37:47;;;;;;;18.80;9.20;;;;;;;-1.53;100.00;103073.38;5016111;28;20284;-91
2023/01/22 05:40:13;;;;;;;19.80;9.87;;;;;;;-1.46;100.00;103080.06;5016698;28;20462;-91
2023/01/22 05:42:40;;;;;;;19.23;9.73;;;;;;;-1.51;100.00;103079.47;5016565;28;20276;-90
2023/01/22 05:45:08;;;;;;;16.92;8.68;;;;;;;-1.56;100.00;103070.88;4999871;28;20041;-91
2023/01/22 05:47:34;;;;;;;22.67;9.68;;;;;;;-1.51;100.00;103084.78;5016372;28;20472;-90
2023/01/22 05:49:59;;;;;;;18.87;9.67;;;;;;;-1.53;100.00;103082.19;5017568;28;20040;-90
2023/01/22 05:52:46;;;;;;;18.37;9.10;;;;;;;-1.51;100.00;103084.78;5016959;28;20037;-91
2023/01/22 05:55:14;;;;;;;17.83;8.73;;;;;;;-1.49;100.00;103086.44;5016581;28;20465;-90
2023/01/22 05:57:39;;;;;;;19.15;8.98;;;;;;;-1.43;100.00;103090.56;4999475;28;20107;-91
2023/01/22 06:00:07;;;;;;;20.63;9.10;;;;;;;-1.43;100.00;103091.44;5016048;28;20038;-91
2023/01/22 06:02:33;;;;;;;22.13;10.32;;;;;;;-1.46;100.00;103086.25;5014908;28;20061;-91
2023/01/22 06:04:58;;;;;;;21.20;9.77;;;;;;;-1.38;100.00;103091.19;5016601;28;20032;-90
2023/01/22 06:07:24;;;;;;;17.27;9.23;;;;;;;-1.39;100.00;103081.47;5033724;28;20388;-91
2023/01/22 06:09:54;;;;;;;18.37;8.70;;;;;;;-1.39;100.00;103086.78;4999930;28;20036;-90
2023/01/22 06:12:19;;;;;;;18.52;9.20;;;;;;;-1.39;100.00;103089.44;5016692;28;20034;-91
2023/01/22 06:14:45;;;;;;;19.00;9.57;;;;;;;-1.30;100.00;103102.28;5016222;28;20061;-91
2023/01/22 06:17:10;;;;;;;20.00;9.77;;;;;;;-1.38;100.00;103082.34;5015813;28;20018;-91
2023/01/22 06:19:41;;;;;;;18.58;8.73;;;;;;;-1.35;100.00;103084.84;5015702;28;20029;-91
2023/01/22 06:22:11;;;;;;;22.27;10.13;;;;;;;-1.34;100.00;103090.06;5033769;28;20036;-91
2023/01/22 06:24:53;;;;;;;19.83;9.13;;;;;;;-1.33;100.00;103093.59;4999587;28;20179;-91
2023/01/22 06:27:21;;;;;;;17.00;9.40;;;;;;;-1.38;100.00;103093.00;5016745;28;20022;-92
2023/01/22 06:29:47;;;;;;;19.00;9.38;;;;;;;-1.34;100.00;103089.22;5033651;28;20532;-91
2023/01/22 06:32:14;;;;;;;19.97;10.57;;;;;;;-1.26;100.00;103106.50;5015588;28;20086;-92
2023/01/22 06:34:40;;;;;;;19.80;9.70;;;;;;;-1.25;100.00;103097.56;5016381;28;20033;-90
2023/01/22 06:37:10;;;;;;;19.80;9.50;;;;;;;-1.27;100.00;103096.78;5001209;28;20033;-91
2023/01/22 06:39:36;;;;;;;18.65;9.50;;;;;;;-1.32;100.00;103090.00;5018453;28;20037;-91
2023/01/22 06:42:07;;;;;;;18.27;9.60;;;;;;;-1.29;100.00;103095.16;5016201;28;20409;-91
2023/01/22 06:44:41;;;;;;;19.08;9.93;;;;;;;-1.28;100.00;103083.56;5033257;28;20099;-92
2023/01/22 06:47:14;;;;;;;24.02;10.02;;;;;;;-1.30;100.00;103083.66;5017574;28;20038;-93
2023/01/22 06:49:39;;;;;;;20.33;9.38;;;;;;;-1.26;100.00;103094.97;5015836;28;20495;-92
2023/01/22 06:52:05;;;;;;;19.53;9.57;;;;;;;-1.23;100.00;103094.81;5033690;28;20104;-88
2023/01/22 06:54:31;;;;;;;19.85;10.07;;;;;;;-1.26;100.00;103092.31;4982655;28;20125;-88
2023/01/22 06:56:56;;;;;;;19.70;9.23;;;;;;;-1.22;100.00;103103.69;5049326;28;20158;-89
2023/01/22 06:59:22;;;;;;;19.30;9.03;;;;;;;-1.25;100.00;103099.38;4987621;28;20077;-89
2023/01/22 07:01:47;;;;;;;20.80;9.35;;;;;;;-1.24;100.00;103111.72;4996971;28;20037;-90
2023/01/22 07:04:13;;;;;;;18.63;9.00;;;;;;;-1.26;100.00;103100.31;5036036;28;20033;-89
2023/01/22 07:06:38;;;;;;;17.57;9.47;;;;;;;-1.25;100.00;103099.38;5016788;28;20030;-89
2023/01/22 07:09:06;;;;;;;18.53;9.33;;;;;;;-1.19;100.00;103099.03;5033628;28;20033;-90
2023/01/22 07:11:31;;;;;;;17.38;9.48;;;;;;;-1.25;100.00;103100.22;5033344;28;20033;-91
2023/01/22 07:13:57;;;;;;;17.13;9.23;;;;;;;-1.17;100.00;103112.28;5025013;28;20044;-91
2023/01/22 07:16:22;;;;;;;20.77;9.73;;;;;;;-1.21;100.00;103102.72;5009841;28;20123;-91
2023/01/22 07:18:47;;;;;;;19.10;9.65;;;;;;;-1.18;100.00;103100.78;5007606;28;20040;-90
2023/01/22 07:21:13;;;;;;;17.77;9.47;;;;;;;-1.16;100.00;103109.53;5001083;28;20030;-90
2023/01/22 07:23:40;;;;;;;18.17;9.53;;;;;;;-1.10;100.00;103119.00;4982806;28;20032;-90
2023/01/22 07:26:05;;;;;;;21.60;9.88;;;;;;;-1.10;100.00;103119.00;5016709;28;20036;-90
2023/01/22 07:28:31;;;;;;;19.50;9.47;;;;;;;-1.08;100.00;103114.44;5016333;28;20026;-90
2023/01/22 07:30:57;;;;;;;20.08;9.77;;;;;;;-1.15;100.00;103102.38;4982509;28;20513;-92
2023/01/22 07:33:22;;;;;;;17.93;9.07;;;;;;;-1.08;100.00;103106.44;4998460;28;20099;-90
2023/01/22 07:35:57;;;;;;;18.23;9.83;;;;;;;-1.07;100.00;103105.50;4998793;28;20064;-90
2023/01/22 07:38:26;;;;;;;19.67;9.43;;;;;;;-1.11;100.00;103101.28;5016591;28;20053;-90
2023/01/22 07:40:52;;;;;;;18.23;9.18;;;;;;;-1.06;100.00;103102.75;4998771;28;20034;-90
2023/01/22 07:43:17;;;;;;;16.20;8.90;;;;;;;-1.06;100.00;103107.25;4982510;28;20490;-91
2023/01/22 07:45:43;;;;;;;18.25;9.27;;;;;;;-1.05;100.00;103108.94;4998069;28;20300;-91
2023/01/22 07:48:09;;;;;;;19.33;9.33;;;;;;;-0.99;100.00;103110.41;4998368;28;20069;-90
2023/01/22 07:50:38;;;;;;;19.65;9.15;;;;;;;-1.02;100.00;103110.59;5015869;28;20033;-90
2023/01/22 07:53:04;;;;;;;18.35;9.48;;;;;;;-0.96;100.00;103115.56;5016117;28;20088;-90
2023/01/22 07:55:33;;;;;;;18.03;9.73;;;;;;;-0.91;100.00;103130.38;4998601;28;20441;-91
2023/01/22 07:58:05;;;;;;;17.52;9.15;;;;;;;-0.95;100.00;103118.16;4982318;28;20149;-90
2023/01/22 08:00:33;;;;;;;20.48;9.15;;;;;;;-0.93;100.00;103107.41;5015908;28;20042;-89
2023/01/22 08:02:59;;;;;;;17.63;9.00;;;;;;;-0.87;100.00;103125.75;5015330;28;20129;-90
2023/01/22 08:05:24;;;;;;;16.97;8.70;;;;;;;-0.84;100.00;103122.91;4982573;28;20514;-89
2023/01/22 08:07:50;;;;;;;18.23;9.20;;;;;;;-0.86;100.00;103123.94;4982039;28;20371;-90
2023/01/22 08:10:16;;;;;;;16.92;8.52;;;;;;;-0.78;100.00;103119.06;4997848;28;20030;-90
2023/01/22 08:12:42;;;;;;;14.83;8.33;;;;;;;-0.78;100.00;103117.22;4997893;28;20038;-90
2023/01/22 08:15:09;;;;;;;16.58;8.45;;;;;;;-0.67;100.00;103118.44;4998433;28;20281;-90
2023/01/22 08:17:36;;;;;;;15.90;8.98;;;;;;;-0.61;100.00;103124.28;4997947;28;20029;-90
2023/01/22 08:20:02;;;;;;;16.45;8.38;;;;;;;-0.49;100.00;103136.06;4998612;28;20034;-89
2023/01/22 08:22:28;;;;;;;16.08;8.40;;;;;;;-0.47;100.00;103120.84;4997711;28;20133;-90
2023/01/22 08:24:53;;;;;;;17.83;8.10;;;;;;;-0.31;100.00;103136.84;4997659;28;20249;-90
2023/01/22 08:27:20;;;;;;;18.17;8.17;;;;;;;-0.25;100.00;103132.94;4997806;28;20072;-90
2023/01/22 08:29:46;;;;;;;15.20;8.43;;;;;;;-0.25;100.00;103124.94;5015714;28;20100;-90
2023/01/22 08:32:12;;;;;;;17.77;8.30;;;;;;;-0.11;100.00;103142.84;4981204;28;20455;-90
2023/01/22 08:34:40;;;;;;;12.93;6.83;;;;;;;-0.10;100.00;103141.91;4997346;28;20116;-89
2023/01/22 08:37:06;;;;;;;14.35;7.72;;;;;;;-0.05;100.00;103135.31;4998051;28;20524;-88
2023/01/22 08:39:32;;;;;;;14.30;7.65;;;;;;;0.05;100.00;103145.47;4997877;28;20029;-88
2023/01/22 08:41:57;;;;;;;13.47;7.57;;;;;;;0.11;100.00;103148.63;4997520;28;20118;-90
2023/01/22 08:44:24;;;;;;;16.23;7.77;;;;;;;0.15;100.00;103144.00;4981218;28;20482;-89
2023/01/22 08:46:50;;;;;;;13.73;7.47;;;;;;;0.15;100.00;103136.81;4997647;28;20108;-89
2023/01/22 08:49:17;;;;;;;15.40;7.40;;;;;;;0.24;100.00;103139.91;4997349;28;20044;-89
2023/01/22 08:51:43;;;;;;;12.07;6.80;;;;;;;0.20;100.00;103149.91;4997623;28;20065;-89
2023/01/22 08:54:09;;;;;;;13.77;7.03;;;;;;;0.19;100.00;103147.31;5015309;28;20058;-89
2023/01/22 08:56:34;;;;;;;11.75;6.88;;;;;;;0.23;100.00;103149.72;4997085;28;20540;-89
2023/01/22 08:59:05;;;;;;;12.33;6.63;;;;;;;0.23;100.00;103140.84;4981018;28;20057;-89
2023/01/22 09:01:31;;;;;;;12.27;5.85;;;;;;;0.23;100.00;103146.19;4996679;28;20029;-89
2023/01/22 09:03:56;;;;;;;13.68;6.88;;;;;;;0.23;100.00;103138.19;4994558;28;20033;-89
2023/01/22 09:06:25;;;;;;;12.37;6.80;;;;;;;0.34;100.00;103146.44;5016613;28;20033;-90
2023/01/22 09:08:51;;;;;;;14.32;7.82;;;;;;;0.21;100.00;103132.94;5035511;28;20148;-89
2023/01/22 09:11:17;;;;;;;16.23;7.30;;;;;;;0.25;100.00;103137.16;5000106;28;20029;-89
2023/01/22 09:13:43;;;;;;;13.73;6.90;;;;;;;0.25;100.00;103133.59;5016376;28;20041;-90
2023/01/22 09:16:09;;;;;;;13.63;6.55;;;;;;;0.21;100.00;103137.41;5016479;28;20022;-90
2023/01/22 09:18:36;;;;;;;12.23;6.57;;;;;;;0.22;100.00;103137.31;5016764;28;20026;-89
2023/01/22 09:21:03;;;;;;;11.10;5.97;;;;;;;0.28;100.00;103138.75;5015640;28;20299;-89
2023/01/22 09:23:28;;;;;;;13.10;6.75;;;;;;;0.18;100.00;103138.47;5016625;28;20033;-89
2023/01/22 09:25:54;;;;;;;11.63;6.65;;;;;;;0.25;100.00;103147.84;5015191;28;20385;-90
2023/01/22 09:28:22;;;;;;;12.73;6.57;;;;;;;0.22;100.00;103142.66;5003252;28;20072;-88
2023/01/22 09:30:48;;;;;;;12.13;6.57;;;;;;;0.36;100.00;103143.66;5016673;28;20033;-92
2023/01/22 09:33:14;;;;;;;11.80;6.63;;;;;;;0.42;100.00;103141.47;5025364;28;20100;-90
2023/01/22 09:35:39;;;;;;;11.68;6.28;;;;;;;0.54;100.00;103150.56;5015605;28;20036;-89
2023/01/22 09:38:05;;;;;;;11.60;6.68;;;;;;;0.82;100.00;103162.22;5016397;28;20055;-90
2023/01/22 09:40:36;;;;;;;11.77;7.37;;;;;;;0.93;100.00;103150.88;5000728;28;20037;-89
2023/01/22 09:43:17;;;;;;;11.18;6.68;;;;;;;1.04;100.00;103159.09;5016212;28;20124;-89
2023/01/22 09:45:43;;;;;;;10.15;5.80;;;;;;;1.11;100.00;103162.22;5033790;28;20079;-89
2023/01/22 09:48:16;;;;;;;11.17;6.73;;;;;;;1.17;99.75;103159.19;5015773;28;20030;-90
2023/01/22 09:50:44;;;;;;;12.90;6.78;;;;;;;1.14;99.99;103154.88;5016458;28;20071;-90
2023/01/22 09:53:16;;;;;;;12.55;7.05;;;;;;;1.25;99.79;103170.25;5033523;28;20026;-89
2023/01/22 09:55:49;;;;;;;12.05;6.35;;;;;;;1.15;100.00;103159.28;5014907;28;20018;-89
2023/01/22 09:58:20;;;;;;;12.77;6.70;;;;;;;1.10;100.00;103149.81;5014173;28;20136;-91
2023/01/22 10:00:49;;;;;;;10.63;6.68;;;;;;;1.01;99.62;103146.75;5019903;28;20057;-90
2023/01/22 10:03:25;;;;;;;13.98;6.32;;;;;;;1.01;99.82;103148.59;5015641;28;20026;-89
2023/01/22 10:05:58;;;;;;;11.00;5.90;;;;;;;0.97;99.88;103155.94;5016559;28;20354;-89
2023/01/22 10:08:37;;;;;;;12.85;6.47;;;;;;;0.89;99.71;103155.56;5033718;28;20056;-89
2023/01/22 10:11:03;;;;;;;13.40;6.88;;;;;;;0.90;100.00;103164.44;5016084;28;20025;-90
2023/01/22 10:13:35;;;;;;;11.48;6.05;;;;;;;0.92;100.00;103155.38;5016110;28;20029;-93
2023/01/22 10:16:04;;;;;;;12.35;6.13;;;;;;;0.97;100.00;103163.94;5016668;28;20033;-90
2023/01/22 10:18:47;;;;;;;10.07;6.22;;;;;;;1.02;100.00;103175.22;5033913;28;20116;-89
2023/01/22 10:21:40;;;;;;;10.07;5.82;;;;;;;1.06;99.98;103178.56;5015851;28;20083;-88
2023/01/22 10:24:09;;;;;;;10.73;5.90;;;;;;;0.92;99.43;103165.22;5015885;28;20026;-88
2023/01/22 10:26:47;;;;;;;12.48;6.00;;;;;;;0.91;99.60;103172.34;5015653;28;20320;-89
2023/01/22 10:29:24;;;;;;;11.43;6.57;;;;;;;0.93;99.94;103172.25;5015908;28;20032;-88
2023/01/22 10:31:55;;;;;;;11.18;6.38;;;;;;;0.86;100.00;103166.44;5032703;28;20029;-88
2023/01/22 10:34:33;;;;;;;11.02;6.00;;;;;;;0.92;100.00;103168.72;5033752;28;20480;-89
2023/01/22 10:37:17;;;;;;;11.27;6.00;;;;;;;0.93;100.00;103157.09;4999611;28;20035;-89
2023/01/22 10:39:47;;;;;;;12.02;6.15;;;;;;;0.79;99.67;103143.72;5015555;28;20363;-89
2023/01/22 10:42:21;;;;;;;17.73;8.65;;;;;;;0.78;99.68;103147.34;5015387;28;20029;-88
2023/01/22 10:44:48;;;;;;;11.23;6.25;;;;;;;0.78;100.00;103158.88;5014646;28;20124;-89
2023/01/22 10:47:21;;;;;;;10.75;6.82;;;;;;;0.70;100.00;103147.81;5016237;28;20049;-88
2023/01/22 10:49:47;;;;;;;11.20;6.47;;;;;;;0.68;100.00;103155.06;5019434;28;20199;-88
2023/01/22 10:52:37;;;;;;;14.25;6.25;;;;;;;0.75;100.00;103158.22;5019378;28;20279;-89
2023/01/22 10:55:03;;;;;;;11.70;6.45;;;;;;;0.72;100.00;103158.41;5019294;28;20379;-89
2023/01/22 10:57:35;;;;;;;9.68;6.30;;;;;;;0.70;100.00;103169.19;5018968;28;20061;-89
2023/01/22 11:00:05;;;;;;;10.68;6.50;;;;;;;0.73;100.00;103170.81;5019111;28;20030;-88
2023/01/22 11:02:34;;;;;;;10.25;6.57;;;;;;;0.74;100.00;103176.06;5018603;28;20026;-88
2023/01/22 11:05:28;;;;;;;12.82;6.55;;;;;;;0.78;100.00;103182.06;5019164;28;20090;-88
2023/01/22 11:08:02;;;;;;;11.07;6.40;;;;;;;0.68;100.00;103165.75;5035238;28;20044;-88
2023/01/22 11:10:45;;;;;;;10.15;6.25;;;;;;;0.68;100.00;103150.59;5037032;28;20044;-89
2023/01/22 11:13:48;;;;;;;11.10;6.13;;;;;;;0.84;100.00;103154.97;5021459;28;20026;-89
2023/01/22 11:16:15;;;;;;;12.80;6.00;;;;;;;0.89;100.00;103150.22;5026154;28;20125;-89
2023/01/22 11:19:12;;;;;;;9.30;5.72;;;;;;;1.00;100.00;103152.22;5020969;28;20470;-88
2023/01/22 11:22:12;;;;;;;11.73;6.53;;;;;;;1.09;99.98;103146.28;5018932;28;20039;-88
2023/01/22 11:24:46;;;;;;;10.55;6.00;;;;;;;1.07;99.29;103145.53;5051920;28;20267;-88
2023/01/22 11:27:14;;;;;;;10.45;6.65;;;;;;;1.13;99.42;103150.47;5019123;28;20025;-88